Time;durP1;ratioP1;P1;durP2;ratioP2;P2;SDS_P1;SDS_P2;PMS_P1;PMS_P2;Temp;Humidity;BMP_temperature;BMP_pressure;BME280_temperature;BME280_humidity;BME280_pressure;Samples;Min_cycle;Max_cycle;Signal;HPM_P1;HPM_P2
2021/11/09 00:03:00;;;;;;;10.18;5.70;;;;;;;9.82;85.36;101090.38;2750072;86;21099;-71
2021/11/09 00:07:09;;;;;;;12.43;5.80;;;;;;;9.80;85.60;101094.45;2749877;86;21035;-74
2021/11/09 00:11:05;;;;;;;12.68;6.78;;;;;;;9.75;85.93;101103.70;2748957;86;21090;-74
2021/11/09 00:15:11;;;;;;;9.30;5.25;;;;;;;9.57;86.56;101100.80;2769250;84;21060;-71
2021/11/09 00:19:12;;;;;;;10.23;6.55;;;;;;;9.61;86.76;101105.45;2770090;85;21065;-72
2021/11/09 00:23:15;;;;;;;11.83;5.70;;;;;;;9.55;86.83;101096.07;2770036;86;21452;-72
2021/11/09 00:27:17;;;;;;;15.58;5.87;;;;;;;9.51;87.32;101102.53;2770055;85;20994;-72
2021/11/09 00:31:19;;;;;;;16.52;5.58;;;;;;;9.50;87.08;101107.47;2770261;86;21065;-72
2021/11/09 00:35:25;;;;;;;7.85;4.85;;;;;;;9.42;87.59;101111.08;2770172;86;21518;-72
2021/11/09 00:39:27;;;;;;;7.92;5.40;;;;;;;9.41;87.61;101106.72;2770247;86;21073;-73
2021/11/09 00:43:29;;;;;;;8.85;5.42;;;;;;;9.45;87.52;101104.27;2769925;86;21069;-75
2021/11/09 00:47:31;;;;;;;9.48;4.65;;;;;;;9.42;87.63;101109.75;2742749;86;21029;-73
2021/11/09 00:51:32;;;;;;;7.65;4.37;;;;;;;9.46;87.73;101115.27;2769928;86;21073;-73
2021/11/09 00:55:34;;;;;;;11.05;5.53;;;;;;;9.46;87.80;101116.59;2770064;86;21085;-73
2021/11/09 00:59:36;;;;;;;12.88;4.67;;;;;;;9.48;87.84;101127.09;2770025;85;21073;-72
2021/11/09 01:03:37;;;;;;;16.97;5.00;;;;;;;9.35;88.23;101127.91;2769996;86;21073;-73
2021/11/09 01:07:40;;;;;;;16.85;6.65;;;;;;;9.31;88.83;101136.98;2769834;86;20986;-75
2021/11/09 01:11:41;;;;;;;10.95;5.47;;;;;;;9.35;88.81;101131.02;2770029;83;21010;-74
2021/11/09 01:15:50;;;;;;;12.95;5.95;;;;;;;9.24;89.45;101139.20;2742892;86;21033;-76
2021/11/09 01:19:52;;;;;;;11.75;5.80;;;;;;;9.29;89.47;101137.10;2789797;85;21037;-73
2021/11/09 01:23:55;;;;;;;11.53;4.42;;;;;;;9.33;89.59;101144.87;2790158;85;21040;-70
2021/11/09 01:27:58;;;;;;;13.10;6.58;;;;;;;9.33;89.72;101146.20;2789931;85;20973;-74
2021/11/09 01:32:00;;;;;;;8.85;5.58;;;;;;;9.37;89.60;101150.36;2789897;85;21072;-75
2021/11/09 01:36:03;;;;;;;12.78;5.83;;;;;;;9.50;89.35;101146.44;2789440;85;21095;-72
2021/11/09 01:40:08;;;;;;;9.20;4.97;;;;;;;9.60;88.85;101152.02;2789931;85;21025;-74
2021/11/09 01:44:10;;;;;;;15.38;5.83;;;;;;;9.79;88.61;101149.88;2789744;85;21084;-73
2021/11/09 01:48:12;;;;;;;10.38;6.42;;;;;;;9.93;88.17;101162.76;2789822;85;21044;-71
2021/11/09 01:52:14;;;;;;;15.28;5.97;;;;;;;9.99;87.63;101158.36;2789651;85;21092;-73
2021/11/09 01:56:20;;;;;;;11.85;6.33;;;;;;;9.96;87.30;101167.88;2789766;85;21048;-74
2021/11/09 02:00:27;;;;;;;11.95;6.58;;;;;;;9.95;87.35;101167.03;2789727;85;21091;-73
2021/11/09 02:04:28;;;;;;;11.12;7.40;;;;;;;10.01;87.26;101167.08;2789098;85;21085;-73
2021/11/09 02:08:30;;;;;;;9.55;5.78;;;;;;;10.08;87.29;101177.71;2789534;85;21374;-74
2021/11/09 02:12:33;;;;;;;11.08;7.03;;;;;;;10.19;87.00;101174.80;2792541;84;21103;-73
2021/11/09 02:16:35;;;;;;;18.77;7.67;;;;;;;10.27;86.42;101179.16;2800919;85;21040;-74
2021/11/09 02:20:37;;;;;;;18.98;8.50;;;;;;;10.32;86.10;101173.05;2801154;85;21047;-73
2021/11/09 02:24:39;;;;;;;10.03;7.25;;;;;;;10.34;85.92;101180.94;2801159;85;21080;-74
2021/11/09 02:28:42;;;;;;;15.30;6.42;;;;;;;10.28;85.68;101181.70;2801078;85;21063;-76
2021/11/09 02:32:45;;;;;;;10.30;6.83;;;;;;;10.18;85.68;101185.94;2800673;85;21725;-74
2021/11/09 02:36:47;;;;;;;12.43;5.65;;;;;;;10.12;85.92;101183.20;2815672;83;21003;-72
2021/11/09 02:40:49;;;;;;;8.75;5.65;;;;;;;10.09;85.98;101191.84;2792181;85;21051;-74
2021/11/09 02:44:58;;;;;;;5.70;4.50;;;;;;;10.05;86.11;101191.20;2792271;85;21042;-70
2021/11/09 02:53:11;;;;;;;13.32;6.03;;;;;;;9.96;86.28;101194.45;2792490;85;21063;-72
2021/11/09 02:57:24;;;;;;;7.28;4.92;;;;;;;9.93;86.51;101197.31;2791829;85;21133;-68
2021/11/09 03:01:27;;;;;;;7.67;5.50;;;;;;;9.88;87.00;101194.10;2790980;85;21055;-74
2021/11/09 03:13:48;;;;;;;6.97;5.53;;;;;;;9.75;88.53;101204.19;2782921;85;21077;-72
2021/11/09 03:17:59;;;;;;;13.18;5.70;;;;;;;9.73;88.92;101203.43;2768531;85;21085;-75
2021/11/09 03:48:12;;;;;;;11.60;6.97;;;;;;;9.71;89.53;101247.84;2769795;86;21081;-71
2021/11/09 03:52:21;;;;;;;10.43;7.08;;;;;;;9.67;89.58;101256.47;2771063;84;21085;-73
2021/11/09 03:56:24;;;;;;;10.03;7.35;;;;;;;9.65;89.67;101254.39;2810631;84;21124;-71
2021/11/09 04:00:44;;;;;;;11.78;6.95;;;;;;;9.69;89.74;101258.55;2769362;86;21038;-67
2021/11/09 04:04:56;;;;;;;10.20;6.45;;;;;;;9.73;89.87;101263.20;2800541;84;21001;-70
2021/11/09 04:09:07;;;;;;;13.35;6.87;;;;;;;9.80;89.88;101269.83;2744137;86;21075;-71
2021/11/09 04:13:19;;;;;;;11.28;6.55;;;;;;;9.90;89.61;101266.61;2741811;86;21119;-71
2021/11/09 04:17:18;;;;;;;11.35;6.85;;;;;;;9.96;89.37;101274.19;2738268;86;21638;-70
2021/11/09 05:11:59;;;;;;;7.83;5.50;;;;;;;9.23;93.70;101323.30;2753976;86;21063;-72
2021/11/09 05:16:01;;;;;;;9.95;6.25;;;;;;;9.18;93.99;101325.39;2786508;84;21035;-74
2021/11/09 05:20:04;;;;;;;17.35;7.62;;;;;;;9.13;94.28;101336.27;2793497;85;21047;-74
2021/11/09 05:24:06;;;;;;;15.45;8.08;;;;;;;9.19;93.81;101345.67;2793411;84;21067;-75
2021/11/09 05:28:09;;;;;;;11.12;7.58;;;;;;;9.15;93.59;101349.46;2809209;83;21035;-74
2021/11/09 05:32:11;;;;;;;19.12;7.22;;;;;;;9.18;93.75;101351.93;2822227;83;21099;-73
2021/11/09 05:36:13;;;;;;;11.57;7.28;;;;;;;9.16;93.67;101351.17;2852044;83;21046;-76
2021/11/09 05:40:15;;;;;;;17.32;8.40;;;;;;;9.09;94.03;101363.11;2846191;82;21005;-79
2021/11/09 05:44:17;;;;;;;10.63;7.85;;;;;;;9.14;94.09;101366.34;2851217;83;21038;-73
2021/11/09 05:48:19;;;;;;;15.93;8.43;;;;;;;9.16;94.06;101372.41;2859176;82;21066;-70
2021/11/09 05:52:21;;;;;;;13.68;8.55;;;;;;;9.28;93.61;101381.45;2859172;83;21003;-72
2021/11/09 05:56:22;;;;;;;10.72;7.20;;;;;;;9.27;93.12;101388.58;2859100;82;21034;-74
2021/11/09 06:00:24;;;;;;;15.10;9.15;;;;;;;9.25;92.93;101390.47;2859261;83;21026;-72
2021/11/09 06:04:26;;;;;;;13.28;7.67;;;;;;;9.33;92.73;101398.45;2858923;82;21054;-75
2021/11/09 06:08:28;;;;;;;15.35;7.83;;;;;;;9.38;92.52;101407.86;2859340;83;20966;-73
2021/11/09 06:12:33;;;;;;;16.35;8.13;;;;;;;9.42;92.16;101416.47;2829509;82;21081;-75
2021/11/09 06:16:36;;;;;;;14.18;8.80;;;;;;;9.40;91.53;101422.35;2815553;84;21109;-72
2021/11/09 06:20:37;;;;;;;20.52;9.30;;;;;;;9.41;91.26;101428.91;2850113;80;21033;-71
2021/11/09 06:24:39;;;;;;;15.45;7.65;;;;;;;9.43;91.06;101438.10;2815876;83;21310;-73
2021/11/09 06:28:41;;;;;;;13.62;8.45;;;;;;;9.38;90.92;101451.67;2850201;83;20998;-73
2021/11/09 06:32:42;;;;;;;9.60;8.58;;;;;;;9.31;90.71;101464.91;2816043;83;21038;-71
2021/11/09 06:36:44;;;;;;;14.43;6.90;;;;;;;9.27;90.81;101471.34;2815956;84;20995;-73
2021/11/09 06:40:46;;;;;;;19.98;8.90;;;;;;;9.33;91.20;101474.13;2816022;84;21106;-72
2021/11/09 06:44:48;;;;;;;14.15;9.00;;;;;;;9.39;91.27;101483.92;2849758;81;21039;-73
2021/11/09 06:48:49;;;;;;;19.30;10.18;;;;;;;9.43;91.06;101488.56;2850119;81;21079;-71
2021/11/09 06:52:51;;;;;;;12.73;8.38;;;;;;;9.51;91.28;101492.98;2849973;81;21028;-71
2021/11/09 06:56:54;;;;;;;21.23;10.38;;;;;;;9.58;91.30;101500.95;2828538;79;21062;-73
2021/11/09 07:00:56;;;;;;;14.50;10.03;;;;;;;9.66;90.74;101512.47;2756275;84;21072;-73
2021/11/09 07:04:58;;;;;;;20.48;9.00;;;;;;;9.72;90.47;101520.07;2779152;82;21076;-71
2021/11/09 07:09:01;;;;;;;20.17;9.95;;;;;;;9.77;90.17;101524.28;2792063;81;21354;-73
2021/11/09 07:13:03;;;;;;;25.32;10.98;;;;;;;9.79;89.84;101529.88;2826945;82;21076;-73
2021/11/09 07:17:06;;;;;;;16.50;8.33;;;;;;;9.89;89.69;101537.31;2826742;84;21014;-72
2021/11/09 07:21:08;;;;;;;11.78;8.73;;;;;;;9.96;89.31;101539.98;2826753;83;21034;-72
2021/11/09 07:25:12;;;;;;;17.20;10.05;;;;;;;10.07;89.37;101537.55;2827213;81;21391;-73
2021/11/09 07:29:14;;;;;;;12.35;9.25;;;;;;;10.17;89.38;101545.84;2827579;82;21025;-73
2021/11/09 07:33:15;;;;;;;17.77;8.73;;;;;;;10.21;88.81;101542.50;2827466;82;21112;-76
2021/11/09 07:37:17;;;;;;;19.85;8.40;;;;;;;10.28;88.81;101546.52;2827921;81;20966;-76
2021/11/09 07:41:19;;;;;;;13.45;9.85;;;;;;;10.29;88.35;101554.88;2827402;82;21018;-73
2021/11/09 07:45:21;;;;;;;16.85;10.18;;;;;;;10.37;87.78;101557.91;2827285;81;21017;-73
2021/11/09 07:49:23;;;;;;;18.02;10.98;;;;;;;10.42;87.46;101559.00;2827117;82;21009;-73
2021/11/09 07:53:29;;;;;;;14.43;9.15;;;;;;;10.41;87.08;101571.44;2827281;82;21073;-71
2021/11/09 07:57:41;;;;;;;18.20;10.88;;;;;;;10.48;87.26;101575.91;2833611;82;21114;-74
2021/11/09 08:01:42;;;;;;;16.85;9.83;;;;;;;10.52;86.67;101585.90;2860170;80;21057;-74
2021/11/09 08:05:59;;;;;;;16.87;9.73;;;;;;;10.61;87.22;101584.02;2842308;81;20997;-72
2021/11/09 08:09:47;;;;;;;16.93;9.08;;;;;;;10.70;86.87;101591.88;2840119;83;21054;-71
2021/11/09 08:13:50;;;;;;;17.73;9.58;;;;;;;10.81;85.83;101594.75;2816098;81;21078;-72
2021/11/09 08:17:51;;;;;;;20.08;9.03;;;;;;;10.93;86.02;101594.95;2802103;84;20990;-74
2021/11/09 08:21:56;;;;;;;22.35;9.05;;;;;;;10.99;85.53;101603.38;2801810;84;20967;-74
2021/11/09 08:25:58;;;;;;;14.85;6.87;;;;;;;10.88;84.75;101604.55;2802011;83;21095;-70
2021/11/09 08:29:59;;;;;;;18.87;8.38;;;;;;;10.90;84.34;101606.64;2802192;83;21053;-70
2021/11/09 08:34:05;;;;;;;18.87;7.42;;;;;;;10.91;84.05;101615.00;2801923;83;20987;-74
2021/11/09 08:38:07;;;;;;;10.72;7.37;;;;;;;10.89;83.01;101624.89;2802109;83;21034;-71
2021/11/09 08:42:14;;;;;;;12.68;5.83;;;;;;;10.87;83.13;101626.80;2802114;83;20991;-72
2021/11/09 08:46:18;;;;;;;8.80;6.05;;;;;;;10.82;83.80;101636.39;2802177;84;21097;-71
2021/11/09 08:50:18;;;;;;;16.55;8.68;;;;;;;10.79;84.33;101639.70;2801782;83;21002;-73
2021/11/09 08:54:36;;;;;;;10.48;7.42;;;;;;;10.92;83.91;101644.66;2802241;84;21042;-71
2021/11/09 09:07:46;;;;;;;20.68;8.13;;;;;;;11.12;82.46;101664.74;2732018;87;21090;-84
2021/11/09 09:11:54;;;;;;;19.37;9.63;;;;;;;11.18;81.69;101670.14;2732542;85;21076;-84
2021/11/09 09:16:25;;;;;;;12.73;7.20;;;;;;;11.23;82.45;101680.05;2731516;87;21056;-84
2021/11/09 09:20:36;;;;;;;19.05;10.32;;;;;;;11.26;82.13;101682.98;2732288;87;21032;-84
2021/11/09 09:24:42;;;;;;;23.35;9.18;;;;;;;11.36;81.42;101685.46;2728974;86;21055;-85
2021/11/09 09:29:07;;;;;;;18.80;10.37;;;;;;;11.45;79.89;101688.02;2729122;85;21055;-85
2021/11/09 09:59:46;;;;;;;24.07;13.38;;;;;;;12.23;78.64;101699.92;2728021;87;21020;-83
2021/11/09 10:03:49;;;;;;;24.65;14.93;;;;;;;12.27;78.64;101705.41;2737795;86;21098;-85
2021/11/09 10:07:54;;;;;;;22.17;15.58;;;;;;;12.35;79.54;101708.91;2731539;87;21016;-84
2021/11/09 10:12:19;;;;;;;16.55;11.85;;;;;;;12.45;77.96;101705.14;2731535;87;21000;-84
2021/11/09 10:21:04;;;;;;;15.03;8.78;;;;;;;12.41;77.93;101711.19;2800728;82;71141;-72
2021/11/09 10:25:11;;;;;;;14.38;9.28;;;;;;;12.45;78.03;101714.98;2809821;83;21042;-74
2021/11/09 10:29:13;;;;;;;15.83;10.70;;;;;;;12.55;77.52;101716.05;2810311;83;21495;-73
2021/11/09 10:33:19;;;;;;;18.42;10.28;;;;;;;12.53;76.97;101716.18;2810085;83;21082;-71
2021/11/09 10:37:28;;;;;;;19.80;13.13;;;;;;;12.61;77.09;101718.33;2810599;84;21062;-72
2021/11/09 10:41:30;;;;;;;19.92;12.63;;;;;;;12.74;76.64;101720.14;2810515;84;21014;-72
2021/11/09 10:45:36;;;;;;;19.27;12.20;;;;;;;12.77;76.42;101721.27;2810424;84;21014;-72
2021/11/09 10:50:09;;;;;;;19.92;10.63;;;;;;;12.90;76.16;101720.81;2810387;83;21073;-73
2021/11/09 10:54:12;;;;;;;18.15;9.05;;;;;;;13.00;75.11;101715.69;2824120;83;21026;-73
2021/11/09 10:58:21;;;;;;;18.95;9.03;;;;;;;13.05;74.66;101722.89;2870180;82;21062;-71
2021/11/09 11:06:49;;;;;;;11.30;8.55;;;;;;;13.11;73.57;101718.48;2889428;82;21043;-74
2021/11/09 11:10:51;;;;;;;14.80;10.30;;;;;;;13.16;74.93;101717.30;2889796;81;21046;-73
2021/11/09 11:14:53;;;;;;;17.00;9.20;;;;;;;13.12;73.34;101717.98;2889818;81;21022;-71
2021/11/09 11:18:56;;;;;;;17.00;9.60;;;;;;;13.15;74.13;101713.75;2889580;81;21709;-71
2021/11/09 11:22:58;;;;;;;25.25;13.38;;;;;;;13.10;73.54;101715.90;2889150;81;21066;-72
2021/11/09 11:27:00;;;;;;;19.25;11.00;;;;;;;13.18;73.68;101710.89;2889671;82;20999;-72
2021/11/09 11:31:04;;;;;;;19.07;12.25;;;;;;;13.40;74.05;101709.37;2889237;81;21208;-72
2021/11/09 11:35:07;;;;;;;18.55;11.38;;;;;;;13.53;74.18;101708.88;2889310;82;20979;-71
2021/11/09 11:39:10;;;;;;;24.20;15.13;;;;;;;13.56;73.75;101713.16;2889457;81;20991;-73
2021/11/09 11:43:11;;;;;;;45.40;28.52;;;;;;;13.52;73.86;101708.50;2889599;81;21003;-71
2021/11/09 11:47:21;;;;;;;32.17;17.67;;;;;;;13.31;73.03;101699.31;2889523;82;21022;-75
2021/11/09 11:51:23;;;;;;;24.60;15.08;;;;;;;13.29;73.04;101696.77;2889317;82;21003;-73
2021/11/09 11:55:28;;;;;;;33.67;19.95;;;;;;;13.35;73.55;101693.66;2857061;82;21082;-75
2021/11/09 11:59:38;;;;;;;30.37;16.65;;;;;;;13.50;73.53;101694.39;2843057;83;21050;-76
2021/11/09 12:03:41;;;;;;;25.25;15.43;;;;;;;13.45;73.17;101696.55;2842715;83;20952;-75
2021/11/09 12:07:58;;;;;;;22.67;13.22;;;;;;;13.49;73.29;101691.84;2841929;84;20994;-73
2021/11/09 12:12:21;;;;;;;12.50;9.40;;;;;;;13.49;73.10;101692.69;2841600;84;21028;-73
2021/11/09 12:16:50;;;;;;;17.15;11.25;;;;;;;13.44;73.77;101692.17;2841385;83;21022;-75
2021/11/09 12:20:52;;;;;;;25.88;14.90;;;;;;;13.51;72.54;101688.58;2841511;84;21026;-70
2021/11/09 12:25:00;;;;;;;16.82;10.75;;;;;;;13.37;73.91;101682.86;2841151;84;21030;-75
2021/11/09 12:29:01;;;;;;;19.23;10.18;;;;;;;13.39;73.13;101672.41;2841338;84;21010;-75
2021/11/09 12:33:15;;;;;;;11.12;8.75;;;;;;;13.45;71.43;101680.52;2841418;84;21050;-72
2021/11/09 12:37:19;;;;;;;10.15;8.93;;;;;;;13.37;72.08;101677.52;2841337;83;20982;-74
2021/11/09 12:41:29;;;;;;;12.95;7.58;;;;;;;13.34;72.54;101679.05;2841609;84;21494;-74
2021/11/09 12:45:31;;;;;;;15.75;9.25;;;;;;;13.11;72.77;101680.20;2841650;84;21025;-73
2021/11/09 12:49:38;;;;;;;9.45;8.03;;;;;;;13.04;73.06;101679.78;2841562;82;21227;-72
2021/11/09 12:53:48;;;;;;;9.80;8.45;;;;;;;13.06;73.48;101681.02;2848941;81;21039;-72
2021/11/09 12:57:50;;;;;;;12.07;8.83;;;;;;;13.09;73.96;101676.33;2889000;82;20956;-71
2021/11/09 13:06:44;;;;;;;16.70;11.28;;;;;;;13.17;73.89;101666.44;2889331;82;21082;-73
2021/11/09 13:10:46;;;;;;;18.77;10.15;;;;;;;13.34;72.09;101660.34;2889440;82;21023;-76
2021/11/09 13:14:58;;;;;;;13.62;9.65;;;;;;;13.16;72.24;101663.86;2890982;81;21016;-72
2021/11/09 13:27:47;;;;;;;;;;;;;;;12.79;72.83;101659.30;2820388;80;72778;-71
2021/11/09 13:31:49;;;;;;;17.40;10.95;;;;;;;12.76;72.62;101654.14;2805434;82;20080;-71
2021/11/09 13:35:51;;;;;;;18.20;11.70;;;;;;;12.57;73.29;101652.74;2817989;82;20959;-72
2021/11/09 13:40:03;;;;;;;34.30;22.90;;;;;;;12.63;73.96;101650.14;2817903;84;21084;-73
2021/11/09 13:44:12;;;;;;;71.90;46.73;;;;;;;12.69;73.98;101655.08;2818227;83;21042;-73
2021/11/09 13:48:17;;;;;;;18.85;11.18;;;;;;;12.92;73.23;101649.45;2818119;84;21038;-73
2021/11/09 13:52:19;;;;;;;11.80;8.65;;;;;;;13.09;72.92;101650.08;2818257;83;21097;-71
2021/11/09 13:56:24;;;;;;;17.07;8.40;;;;;;;13.10;70.78;101655.80;2818247;82;21085;-72
2021/11/09 14:00:39;;;;;;;18.10;9.70;;;;;;;13.10;68.94;101655.80;2818290;83;21034;-72
2021/11/09 14:17:16;;;;;;;14.15;8.58;;;;;;;12.90;71.92;101647.87;2837130;83;21138;-75
2021/11/09 14:21:38;;;;;;;21.33;12.82;;;;;;;12.85;72.26;101653.52;2817488;82;21026;-74
2021/11/09 14:25:40;;;;;;;24.32;13.90;;;;;;;12.79;72.99;101656.13;2827228;82;21017;-75
2021/11/09 14:29:57;;;;;;;22.00;15.63;;;;;;;12.65;74.18;101651.75;2762713;84;21081;-74
2021/11/09 14:34:19;;;;;;;34.58;18.37;;;;;;;12.61;74.77;101646.27;2770976;86;21046;-73
2021/11/09 14:38:22;;;;;;;22.07;15.30;;;;;;;12.52;75.35;101645.54;2771103;84;21034;-73
2021/11/09 14:42:44;;;;;;;32.88;22.65;;;;;;;12.38;75.75;101648.69;2825554;81;21032;-73
2021/11/09 14:46:41;;;;;;;23.75;15.05;;;;;;;12.27;76.41;101644.05;2816521;81;21076;-73
2021/11/09 14:50:52;;;;;;;19.25;12.45;;;;;;;12.13;77.16;101654.33;2818333;83;21052;-76
2021/11/09 14:55:19;;;;;;;35.55;18.60;;;;;;;12.05;77.43;101655.80;2826476;80;21154;-74
2021/11/09 14:59:20;;;;;;;30.53;18.93;;;;;;;11.94;77.88;101657.80;2920694;80;21437;-73
2021/11/09 15:03:22;;;;;;;30.60;19.37;;;;;;;11.81;78.10;101657.30;2920609;80;21381;-73
2021/11/09 15:07:29;;;;;;;32.85;20.80;;;;;;;11.64;78.64;101649.53;2921181;80;22224;-73
2021/11/09 15:11:32;;;;;;;42.03;24.80;;;;;;;11.53;78.88;101657.73;2919792;81;20995;-75
2021/11/09 15:28:45;;;;;;;48.98;28.23;;;;;;;11.10;80.03;101669.31;2920802;81;21016;-78
2021/11/09 15:32:38;;;;;;;92.17;46.28;;;;;;;10.91;80.94;101661.59;2919864;80;21042;-76
2021/11/09 15:40:54;;;;;;;73.40;44.13;;;;;;;10.36;82.83;101661.27;2920961;81;21027;-76
2021/11/09 15:44:58;;;;;;;94.10;52.98;;;;;;;10.19;83.63;101661.39;2921069;80;21019;-75
2021/11/09 15:49:00;;;;;;;122.80;69.15;;;;;;;10.04;83.96;101672.45;2920570;80;21058;-75
2021/11/09 15:57:13;;;;;;;83.20;53.08;;;;;;;10.01;83.36;101674.80;2796507;80;21126;-76
2021/11/09 16:01:15;;;;;;;34.90;21.52;;;;;;;9.99;83.02;101670.05;2791249;84;21012;-77
2021/11/09 16:05:18;;;;;;;32.13;24.35;;;;;;;9.97;82.89;101681.25;2814194;83;21062;-75
2021/11/09 16:09:20;;;;;;;53.25;31.30;;;;;;;9.90;82.94;101681.23;2835008;83;21017;-75
2021/11/09 16:14:04;;;;;;;54.75;35.25;;;;;;;9.81;83.28;101681.27;2848181;82;21075;-76
2021/11/09 16:18:21;;;;;;;64.30;43.55;;;;;;;9.77;83.12;101688.55;2849700;81;21459;-78
2021/11/09 16:26:33;;;;;;;38.78;25.70;;;;;;;9.45;84.21;101688.55;2739387;84;21051;-75
2021/11/09 16:30:35;;;;;;;37.00;23.83;;;;;;;9.36;84.34;101689.04;2795175;85;21576;-76
2021/11/09 16:34:40;;;;;;;44.55;22.05;;;;;;;9.23;84.60;101688.37;2813814;84;21068;-78
2021/11/09 16:38:46;;;;;;;27.07;16.02;;;;;;;8.92;85.41;101693.99;2836809;84;21057;-81
2021/11/09 16:42:54;;;;;;;;;;;;;;;8.73;86.12;101702.52;2831948;83;21034;-80
2021/11/09 16:46:58;;;;;;;133.45;83.27;;;;;;;8.54;86.75;101708.77;2832107;83;20118;-83
2021/11/09 17:08:10;;;;;;;34.20;21.37;;;;;;;8.24;90.41;101723.89;2836310;83;21044;-82
2021/11/09 18:12:40;;;;;;;41.25;26.77;;;;;;;7.83;93.18;101723.16;2832236;83;21097;-79
2021/11/09 18:16:34;;;;;;;68.25;41.70;;;;;;;7.82;92.58;101726.75;2842610;84;21007;-81
2021/11/09 18:20:33;;;;;;;86.65;55.38;;;;;;;7.83;91.97;101731.11;2821593;84;21041;-78
2021/11/09 18:24:35;;;;;;;48.38;27.10;;;;;;;7.78;91.90;101725.18;2820714;83;21055;-83
2021/11/09 18:28:38;;;;;;;42.45;25.65;;;;;;;7.75;92.02;101720.48;2774166;84;21091;-81
2021/11/09 18:32:41;;;;;;;41.90;27.77;;;;;;;7.62;92.60;101726.83;2772530;85;21058;-81
2021/11/09 18:36:43;;;;;;;46.63;26.60;;;;;;;7.63;92.42;101725.89;2786999;85;21015;-81
2021/11/09 18:40:46;;;;;;;47.35;28.47;;;;;;;7.69;91.49;101729.13;2768308;85;21079;-81
2021/11/09 18:44:49;;;;;;;73.78;44.42;;;;;;;7.68;90.59;101726.56;2794380;83;21051;-80
2021/11/09 18:48:59;;;;;;;67.95;43.78;;;;;;;7.68;89.84;101725.23;2792997;85;21027;-78
2021/11/09 18:53:03;;;;;;;61.15;42.30;;;;;;;7.69;89.47;101725.63;2792724;85;21055;-81
2021/11/09 18:57:07;;;;;;;62.10;37.48;;;;;;;7.73;89.00;101731.17;2791748;85;21027;-79
2021/11/09 19:01:08;;;;;;;48.33;34.30;;;;;;;7.63;88.91;101728.54;2791951;83;21039;-80
2021/11/09 19:05:15;;;;;;;109.37;58.68;;;;;;;7.52;89.29;101724.62;2756567;86;21463;-80
2021/11/09 19:09:18;;;;;;;59.10;32.40;;;;;;;7.46;89.23;101723.55;2792376;85;21067;-75
2021/11/09 19:13:20;;;;;;;56.02;32.30;;;;;;;7.14;90.54;101716.62;2793754;84;21050;-74
2021/11/09 19:17:22;;;;;;;54.45;29.48;;;;;;;7.03;90.71;101708.28;2790758;85;21023;-76
2021/11/09 19:21:24;;;;;;;170.00;81.60;;;;;;;6.81;91.90;101714.06;2787154;84;21047;-75
2021/11/09 19:25:26;;;;;;;89.47;49.00;;;;;;;6.78;91.87;101704.08;2792956;83;21384;-78
2021/11/09 19:29:29;;;;;;;64.75;34.40;;;;;;;6.84;91.81;101701.16;2833808;84;21100;-79
2021/11/09 19:33:30;;;;;;;48.98;30.52;;;;;;;6.70;92.28;101706.59;2811436;82;21032;-80
2021/11/09 19:37:32;;;;;;;39.60;26.95;;;;;;;6.62;92.51;101711.33;2812873;83;21039;-78
2021/11/09 19:41:35;;;;;;;146.95;62.80;;;;;;;6.53;92.98;101698.05;2829891;84;21081;-80
2021/11/09 19:45:38;;;;;;;49.50;30.02;;;;;;;6.58;92.84;101711.08;2801891;82;21087;-81
2021/11/09 19:49:40;;;;;;;34.10;24.15;;;;;;;6.45;92.70;101717.34;2816077;83;21065;-77
2021/11/09 19:53:42;;;;;;;48.75;30.57;;;;;;;6.33;93.39;101716.07;2851692;83;21080;-80
2021/11/09 19:57:44;;;;;;;38.60;25.95;;;;;;;6.29;94.06;101717.13;2851380;82;20990;-82
2021/11/09 20:01:48;;;;;;;50.65;33.18;;;;;;;6.27;94.83;101709.69;2851221;81;21602;-82
2021/11/09 20:05:51;;;;;;;46.18;30.48;;;;;;;6.24;95.32;101704.54;2853074;83;21019;-81
2021/11/09 20:09:54;;;;;;;52.23;31.07;;;;;;;6.20;94.85;101700.31;2892148;82;21679;-81
2021/11/09 20:13:59;;;;;;;82.80;38.65;;;;;;;6.20;94.75;101691.94;2891669;82;21064;-81
2021/11/09 20:18:02;;;;;;;169.82;70.15;;;;;;;6.28;94.36;101684.98;2823780;83;21120;-78
2021/11/09 20:22:06;;;;;;;50.38;31.02;;;;;;;6.40;93.34;101671.75;2819817;84;21036;-79
2021/11/09 20:26:13;;;;;;;84.10;37.48;;;;;;;6.42;92.97;101669.90;2793954;84;30045;-82
2021/11/09 20:30:15;;;;;;;;;;;;;;;6.43;92.85;101667.65;2838213;83;21098;-83
2021/11/09 20:34:17;;;;;;;50.20;29.75;;;;;;;6.52;92.62;101663.76;2811877;84;20114;-80
2021/11/09 20:38:24;;;;;;;37.48;22.82;;;;;;;6.51;92.57;101669.97;2834092;82;21111;-78
2021/11/09 20:42:25;;;;;;;98.47;45.00;;;;;;;6.45;93.10;101656.99;2821801;84;21650;-77
2021/11/09 20:46:27;;;;;;;126.92;57.10;;;;;;;6.59;92.83;101644.53;2833875;84;21032;-81
2021/11/09 20:50:30;;;;;;;50.45;26.57;;;;;;;6.63;93.09;101637.70;2835103;84;21042;-81
2021/11/09 20:54:32;;;;;;;183.90;73.17;;;;;;;6.66;92.62;101635.39;2833955;84;21106;-81
2021/11/09 20:58:37;;;;;;;85.72;37.10;;;;;;;6.63;92.52;101626.28;2808378;84;21059;-80
2021/11/09 21:02:39;;;;;;;117.62;56.25;;;;;;;6.67;92.02;101624.73;2813431;84;21598;-80
2021/11/09 21:06:41;;;;;;;43.80;26.10;;;;;;;6.70;91.25;101625.94;2813359;84;21075;-81
2021/11/09 21:10:43;;;;;;;35.80;25.68;;;;;;;6.38;92.65;101645.37;2813390;84;21056;-81
2021/11/09 21:19:05;;;;;;;48.42;30.45;;;;;;;6.05;94.65;101643.68;2813423;84;21028;-81
2021/11/09 21:23:06;;;;;;;36.68;27.07;;;;;;;5.95;95.05;101647.13;2813389;84;21055;-77
2021/11/09 21:27:10;;;;;;;31.97;22.52;;;;;;;5.98;94.88;101656.23;2813282;83;21064;-82
2021/11/09 21:35:32;;;;;;;42.58;26.50;;;;;;;5.86;96.24;101656.28;2834786;83;21095;-80
2021/11/09 21:39:33;;;;;;;53.45;30.25;;;;;;;5.89;95.95;101653.51;2835062;82;21078;-81
2021/11/09 21:43:35;;;;;;;45.45;27.73;;;;;;;5.89;96.18;101651.31;2835521;84;21019;-81
2021/11/09 21:47:37;;;;;;;56.42;33.78;;;;;;;5.93;95.28;101664.34;2835345;84;21070;-80
2021/11/09 21:51:39;;;;;;;56.53;33.48;;;;;;;5.85;94.99;101664.64;2835822;84;21082;-81
2021/11/09 21:55:41;;;;;;;48.48;29.30;;;;;;;5.84;94.73;101651.05;2835694;84;21049;-80
2021/11/09 21:59:43;;;;;;;35.85;26.68;;;;;;;5.71;95.68;101651.16;2837080;84;21047;-81
2021/11/09 22:03:45;;;;;;;48.48;31.75;;;;;;;5.58;95.75;101648.98;2835343;84;21507;-82
2021/11/09 22:07:46;;;;;;;52.03;31.57;;;;;;;5.65;95.06;101650.93;2835533;83;21021;-81
2021/11/09 22:11:48;;;;;;;64.45;40.03;;;;;;;5.50;95.69;101631.73;2833847;84;21062;-80
2021/11/09 22:15:50;;;;;;;51.15;32.45;;;;;;;5.64;95.07;101623.26;2834220;84;21046;-81
2021/11/09 22:19:51;;;;;;;52.00;30.80;;;;;;;5.52;95.44;101622.84;2834063;82;21069;-81
2021/11/09 22:23:53;;;;;;;47.20;31.50;;;;;;;5.46;95.59;101615.14;2792145;85;21071;-82
2021/11/09 22:27:55;;;;;;;51.30;30.50;;;;;;;5.43;95.81;101611.30;2855009;83;21103;-81
2021/11/09 22:31:56;;;;;;;42.30;29.02;;;;;;;5.38;95.84;101607.99;2858670;82;21071;-81
2021/11/09 22:36:00;;;;;;;51.42;30.43;;;;;;;5.47;95.44;101590.47;2808014;84;21389;-81
2021/11/09 22:40:04;;;;;;;49.63;27.85;;;;;;;5.36;95.29;101599.28;2858982;83;21126;-80
2021/11/09 22:44:06;;;;;;;38.95;27.50;;;;;;;5.22;95.28;101600.66;2859104;83;21060;-81
2021/11/09 22:48:08;;;;;;;51.53;29.92;;;;;;;5.23;94.62;101606.34;2858969;83;21011;-80
2021/11/09 22:52:10;;;;;;;38.98;24.87;;;;;;;5.19;94.99;101610.02;2859103;83;21011;-79
2021/11/09 22:56:12;;;;;;;43.48;25.82;;;;;;;5.19;96.10;101606.51;2859168;83;21087;-80
2021/11/09 23:00:21;;;;;;;39.33;26.87;;;;;;;5.24;96.72;101599.30;2859750;82;21020;-79
2021/11/09 23:04:23;;;;;;;52.53;32.93;;;;;;;5.37;96.00;101596.56;2860157;83;21058;-80
2021/11/09 23:08:24;;;;;;;79.00;39.08;;;;;;;5.47;95.09;101595.74;2860045;83;21003;-80
2021/11/09 23:12:26;;;;;;;67.08;38.70;;;;;;;5.53;94.12;101600.80;2860037;83;21679;-80
2021/11/09 23:16:28;;;;;;;57.40;32.88;;;;;;;5.57;93.64;101598.44;2859834;82;21603;-79
2021/11/09 23:20:31;;;;;;;47.13;30.43;;;;;;;5.65;92.13;101595.48;2809469;84;21110;-79